sensor_id;sensor_type;location;lat;lon;timestamp;P1;durP1;ratioP1;P2;durP2;ratioP2
35578;SDS011;21687;48.900;9.188;2024-03-23T00:54:34;9.83;;;6.83;;
35578;SDS011;21687;48.900;9.188;2024-03-23T00:57:00;8.93;;;6.53;;
35578;SDS011;21687;48.900;9.188;2024-03-23T00:59:26;12.83;;;6.90;;
35578;SDS011;21687;48.900;9.188;2024-03-23T01:01:53;9.20;;;6.57;;
35578;SDS011;21687;48.900;9.188;2024-03-23T01:04:20;12.20;;;6.57;;
35578;SDS011;21687;48.900;9.188;2024-03-23T01:06:47;12.80;;;6.57;;
35578;SDS011;21687;48.900;9.188;2024-03-23T01:09:13;7.10;;;6.33;;
35578;SDS011;21687;48.900;9.188;2024-03-23T01:11:39;10.23;;;6.30;;
35578;SDS011;21687;48.900;9.188;2024-03-23T01:14:06;13.77;;;6.20;;
35578;SDS011;21687;48.900;9.188;2024-03-23T01:16:32;8.83;;;5.73;;
35578;SDS011;21687;48.900;9.188;2024-03-23T01:18:58;6.83;;;5.77;;
35578;SDS011;21687;48.900;9.188;2024-03-23T01:21:25;6.70;;;5.63;;
35578;SDS011;21687;48.900;9.188;2024-03-23T01:23:51;7.70;;;6.07;;
35578;SDS011;21687;48.900;9.188;2024-03-23T01:26:17;7.10;;;5.47;;
35578;SDS011;21687;48.900;9.188;2024-03-23T01:28:44;8.93;;;6.13;;
35578;SDS011;21687;48.900;9.188;2024-03-23T01:31:10;8.00;;;5.20;;
35578;SDS011;21687;48.900;9.188;2024-03-23T01:33:36;7.13;;;4.90;;
35578;SDS011;21687;48.900;9.188;2024-03-23T01:36:02;9.13;;;5.20;;
35578;SDS011;21687;48.900;9.188;2024-03-23T01:38:29;7.67;;;5.43;;
35578;SDS011;21687;48.900;9.188;2024-03-23T01:40:58;6.63;;;5.37;;
35578;SDS011;21687;48.900;9.188;2024-03-23T01:43:25;11.50;;;4.97;;
35578;SDS011;21687;48.900;9.188;2024-03-23T01:45:51;8.40;;;4.57;;
35578;SDS011;21687;48.900;9.188;2024-03-23T01:48:19;5.80;;;4.80;;
35578;SDS011;21687;48.900;9.188;2024-03-23T01:50:46;7.47;;;4.80;;
35578;SDS011;21687;48.900;9.188;2024-03-23T01:53:13;8.67;;;4.83;;
35578;SDS011;21687;48.900;9.188;2024-03-23T01:55:42;6.37;;;4.70;;
35578;SDS011;21687;48.900;9.188;2024-03-23T01:58:09;6.50;;;4.47;;
35578;SDS011;21687;48.900;9.188;2024-03-23T02:00:35;5.97;;;4.67;;
35578;SDS011;21687;48.900;9.188;2024-03-23T02:03:02;6.80;;;4.33;;
35578;SDS011;21687;48.900;9.188;2024-03-23T02:05:46;6.30;;;4.53;;
35578;SDS011;21687;48.900;9.188;2024-03-23T02:08:13;6.47;;;4.83;;
35578;SDS011;21687;48.900;9.188;2024-03-23T02:10:39;7.43;;;4.30;;
35578;SDS011;21687;48.900;9.188;2024-03-23T02:13:05;9.13;;;4.47;;
35578;SDS011;21687;48.900;9.188;2024-03-23T02:15:32;6.87;;;4.63;;
35578;SDS011;21687;48.900;9.188;2024-03-23T02:17:59;5.90;;;4.93;;
35578;SDS011;21687;48.900;9.188;2024-03-23T02:20:25;11.67;;;5.43;;
35578;SDS011;21687;48.900;9.188;2024-03-23T02:22:53;9.47;;;5.43;;
35578;SDS011;21687;48.900;9.188;2024-03-23T02:25:19;6.17;;;4.73;;
35578;SDS011;21687;48.900;9.188;2024-03-23T02:27:45;4.33;;;3.10;;
35578;SDS011;21687;48.900;9.188;2024-03-23T02:30:12;3.97;;;3.20;;
35578;SDS011;21687;48.900;9.188;2024-03-23T02:32:38;4.97;;;2.80;;
35578;SDS011;21687;48.900;9.188;2024-03-23T02:35:04;5.63;;;3.30;;
35578;SDS011;21687;48.900;9.188;2024-03-23T02:37:31;3.10;;;2.47;;
35578;SDS011;21687;48.900;9.188;2024-03-23T02:39:58;2.70;;;2.50;;
35578;SDS011;21687;48.900;9.188;2024-03-23T02:42:24;4.00;;;2.60;;
35578;SDS011;21687;48.900;9.188;2024-03-23T02:44:50;4.10;;;2.70;;
35578;SDS011;21687;48.900;9.188;2024-03-23T02:47:16;2.80;;;2.57;;
35578;SDS011;21687;48.900;9.188;2024-03-23T02:49:43;4.47;;;3.10;;
35578;SDS011;21687;48.900;9.188;2024-03-23T02:52:09;3.93;;;2.93;;
35578;SDS011;21687;48.900;9.188;2024-03-23T02:54:35;3.53;;;3.00;;
35578;SDS011;21687;48.900;9.188;2024-03-23T02:57:02;4.50;;;3.07;;
35578;SDS011;21687;48.900;9.188;2024-03-23T02:59:28;3.87;;;3.00;;
35578;SDS011;21687;48.900;9.188;2024-03-23T03:01:54;4.80;;;4.13;;
35578;SDS011;21687;48.900;9.188;2024-03-23T03:04:21;4.83;;;3.80;;
35578;SDS011;21687;48.900;9.188;2024-03-23T03:06:47;3.93;;;3.10;;
35578;SDS011;21687;48.900;9.188;2024-03-23T03:09:14;4.33;;;3.13;;
35578;SDS011;21687;48.900;9.188;2024-03-23T03:11:40;3.93;;;2.83;;
35578;SDS011;21687;48.900;9.188;2024-03-23T03:14:06;3.17;;;2.87;;
35578;SDS011;21687;48.900;9.188;2024-03-23T03:16:33;3.70;;;2.80;;
35578;SDS011;21687;48.900;9.188;2024-03-23T03:18:59;3.67;;;2.77;;
35578;SDS011;21687;48.900;9.188;2024-03-23T03:21:26;3.63;;;3.17;;
35578;SDS011;21687;48.900;9.188;2024-03-23T03:23:54;3.20;;;2.90;;
35578;SDS011;21687;48.900;9.188;2024-03-23T03:26:22;3.83;;;2.97;;
35578;SDS011;21687;48.900;9.188;2024-03-23T03:28:49;7.17;;;3.10;;
35578;SDS011;21687;48.900;9.188;2024-03-23T03:31:16;3.63;;;3.00;;
35578;SDS011;21687;48.900;9.188;2024-03-23T03:33:43;5.37;;;3.50;;
35578;SDS011;21687;48.900;9.188;2024-03-23T03:36:10;5.17;;;3.37;;
35578;SDS011;21687;48.900;9.188;2024-03-23T03:38:36;4.50;;;3.27;;
35578;SDS011;21687;48.900;9.188;2024-03-23T03:41:05;5.27;;;3.13;;
35578;SDS011;21687;48.900;9.188;2024-03-23T03:43:32;3.67;;;3.00;;
35578;SDS011;21687;48.900;9.188;2024-03-23T03:45:59;4.37;;;3.30;;
35578;SDS011;21687;48.900;9.188;2024-03-23T03:48:26;4.33;;;3.33;;
35578;SDS011;21687;48.900;9.188;2024-03-23T03:50:52;3.40;;;3.10;;
35578;SDS011;21687;48.900;9.188;2024-03-23T03:53:19;4.27;;;3.03;;
35578;SDS011;21687;48.900;9.188;2024-03-23T03:55:45;4.40;;;3.27;;
35578;SDS011;21687;48.900;9.188;2024-03-23T03:58:11;4.90;;;3.00;;
35578;SDS011;21687;48.900;9.188;2024-03-23T04:00:38;3.87;;;2.87;;
35578;SDS011;21687;48.900;9.188;2024-03-23T04:03:04;3.47;;;3.17;;
35578;SDS011;21687;48.900;9.188;2024-03-23T04:05:30;3.83;;;3.53;;
35578;SDS011;21687;48.900;9.188;2024-03-23T04:07:57;3.83;;;3.07;;
35578;SDS011;21687;48.900;9.188;2024-03-23T04:10:24;3.63;;;3.33;;
35578;SDS011;21687;48.900;9.188;2024-03-23T04:12:51;6.90;;;3.40;;
35578;SDS011;21687;48.900;9.188;2024-03-23T04:15:19;3.87;;;2.90;;
35578;SDS011;21687;48.900;9.188;2024-03-23T04:17:45;5.83;;;3.47;;
35578;SDS011;21687;48.900;9.188;2024-03-23T04:20:11;4.10;;;3.40;;
35578;SDS011;21687;48.900;9.188;2024-03-23T04:22:42;3.83;;;3.03;;
35578;SDS011;21687;48.900;9.188;2024-03-23T04:25:08;5.93;;;3.40;;
35578;SDS011;21687;48.900;9.188;2024-03-23T04:27:38;4.27;;;3.80;;
35578;SDS011;21687;48.900;9.188;2024-03-23T04:30:07;8.87;;;5.03;;
35578;SDS011;21687;48.900;9.188;2024-03-23T04:32:38;8.00;;;5.27;;
35578;SDS011;21687;48.900;9.188;2024-03-23T04:35:05;8.30;;;7.00;;
35578;SDS011;21687;48.900;9.188;2024-03-23T04:37:33;10.17;;;8.30;;
35578;SDS011;21687;48.900;9.188;2024-03-23T04:40:03;14.97;;;9.60;;
35578;SDS011;21687;48.900;9.188;2024-03-23T04:42:30;13.10;;;9.97;;
35578;SDS011;21687;48.900;9.188;2024-03-23T04:44:57;15.90;;;11.40;;
35578;SDS011;21687;48.900;9.188;2024-03-23T04:47:23;16.77;;;12.57;;
35578;SDS011;21687;48.900;9.188;2024-03-23T04:49:49;20.70;;;13.40;;
35578;SDS011;21687;48.900;9.188;2024-03-23T04:52:16;18.07;;;14.37;;
35578;SDS011;21687;48.900;9.188;2024-03-23T04:54:42;22.57;;;16.10;;
35578;SDS011;21687;48.900;9.188;2024-03-23T04:57:09;19.63;;;16.10;;
35578;SDS011;21687;48.900;9.188;2024-03-23T04:59:35;23.03;;;16.83;;
35578;SDS011;21687;48.900;9.188;2024-03-23T05:02:01;25.00;;;18.23;;
35578;SDS011;21687;48.900;9.188;2024-03-23T05:04:28;23.50;;;17.47;;
35578;SDS011;21687;48.900;9.188;2024-03-23T05:06:54;25.23;;;18.57;;
35578;SDS011;21687;48.900;9.188;2024-03-23T05:09:20;25.50;;;17.47;;
35578;SDS011;21687;48.900;9.188;2024-03-23T05:11:47;22.30;;;17.03;;
35578;SDS011;21687;48.900;9.188;2024-03-23T05:14:13;22.17;;;16.63;;
35578;SDS011;21687;48.900;9.188;2024-03-23T05:16:40;23.10;;;16.80;;
35578;SDS011;21687;48.900;9.188;2024-03-23T05:19:06;21.47;;;17.30;;
35578;SDS011;21687;48.900;9.188;2024-03-23T05:21:33;21.67;;;16.10;;
35578;SDS011;21687;48.900;9.188;2024-03-23T05:23:59;23.57;;;16.83;;
35578;SDS011;21687;48.900;9.188;2024-03-23T05:26:26;23.70;;;16.47;;
35578;SDS011;21687;48.900;9.188;2024-03-23T05:28:52;20.37;;;16.47;;
35578;SDS011;21687;48.900;9.188;2024-03-23T05:31:28;23.53;;;16.27;;
35578;SDS011;21687;48.900;9.188;2024-03-23T05:33:56;19.00;;;14.77;;
35578;SDS011;21687;48.900;9.188;2024-03-23T05:36:22;19.33;;;14.47;;
35578;SDS011;21687;48.900;9.188;2024-03-23T05:38:49;16.37;;;14.13;;
35578;SDS011;21687;48.900;9.188;2024-03-23T05:41:16;15.87;;;12.97;;
35578;SDS011;21687;48.900;9.188;2024-03-23T05:43:42;17.83;;;13.90;;
35578;SDS011;21687;48.900;9.188;2024-03-23T05:46:09;16.10;;;12.70;;
35578;SDS011;21687;48.900;9.188;2024-03-23T05:48:35;19.23;;;13.73;;
35578;SDS011;21687;48.900;9.188;2024-03-23T05:51:02;19.47;;;13.00;;
35578;SDS011;21687;48.900;9.188;2024-03-23T05:53:28;17.97;;;13.53;;
35578;SDS011;21687;48.900;9.188;2024-03-23T05:56:02;13.10;;;10.73;;
35578;SDS011;21687;48.900;9.188;2024-03-23T05:58:29;13.57;;;9.40;;
35578;SDS011;21687;48.900;9.188;2024-03-23T06:00:59;11.93;;;9.73;;
35578;SDS011;21687;48.900;9.188;2024-03-23T06:03:27;10.43;;;8.43;;
35578;SDS011;21687;48.900;9.188;2024-03-23T06:05:54;13.13;;;8.87;;
35578;SDS011;21687;48.900;9.188;2024-03-23T06:08:21;12.23;;;8.30;;
35578;SDS011;21687;48.900;9.188;2024-03-23T06:10:47;13.50;;;8.13;;
35578;SDS011;21687;48.900;9.188;2024-03-23T06:13:15;11.13;;;7.63;;
35578;SDS011;21687;48.900;9.188;2024-03-23T06:15:42;10.67;;;8.40;;
35578;SDS011;21687;48.900;9.188;2024-03-23T06:18:10;10.73;;;8.33;;
35578;SDS011;21687;48.900;9.188;2024-03-23T06:20:37;9.97;;;7.00;;
35578;SDS011;21687;48.900;9.188;2024-03-23T06:23:04;9.23;;;7.37;;
35578;SDS011;21687;48.900;9.188;2024-03-23T06:25:30;13.87;;;7.33;;
35578;SDS011;21687;48.900;9.188;2024-03-23T06:27:57;8.63;;;6.50;;
35578;SDS011;21687;48.900;9.188;2024-03-23T06:30:27;7.93;;;5.57;;
35578;SDS011;21687;48.900;9.188;2024-03-23T06:32:54;7.23;;;5.07;;
35578;SDS011;21687;48.900;9.188;2024-03-23T06:35:21;5.67;;;4.60;;
35578;SDS011;21687;48.900;9.188;2024-03-23T06:37:47;6.77;;;4.90;;
35578;SDS011;21687;48.900;9.188;2024-03-23T06:40:13;5.30;;;4.17;;
35578;SDS011;21687;48.900;9.188;2024-03-23T06:42:40;5.83;;;3.60;;
35578;SDS011;21687;48.900;9.188;2024-03-23T06:45:06;4.50;;;3.40;;
35578;SDS011;21687;48.900;9.188;2024-03-23T06:47:33;4.63;;;3.60;;
35578;SDS011;21687;48.900;9.188;2024-03-23T06:49:59;3.27;;;2.80;;
35578;SDS011;21687;48.900;9.188;2024-03-23T06:52:28;3.57;;;2.63;;
35578;SDS011;21687;48.900;9.188;2024-03-23T06:54:55;2.20;;;2.00;;
35578;SDS011;21687;48.900;9.188;2024-03-23T06:57:22;1.60;;;1.50;;
35578;SDS011;21687;48.900;9.188;2024-03-23T06:59:48;1.97;;;1.77;;
35578;SDS011;21687;48.900;9.188;2024-03-23T07:02:16;1.30;;;1.20;;
35578;SDS011;21687;48.900;9.188;2024-03-23T07:04:42;1.50;;;1.40;;
35578;SDS011;21687;48.900;9.188;2024-03-23T07:07:09;1.60;;;1.47;;
35578;SDS011;21687;48.900;9.188;2024-03-23T07:09:35;1.40;;;1.30;;
35578;SDS011;21687;48.900;9.188;2024-03-23T07:12:02;1.47;;;1.37;;
35578;SDS011;21687;48.900;9.188;2024-03-23T07:14:29;1.33;;;1.30;;
35578;SDS011;21687;48.900;9.188;2024-03-23T07:16:56;1.00;;;1.00;;
35578;SDS011;21687;48.900;9.188;2024-03-23T07:19:22;2.20;;;1.40;;
35578;SDS011;21687;48.900;9.188;2024-03-23T07:21:49;1.30;;;1.30;;
35578;SDS011;21687;48.900;9.188;2024-03-23T07:24:16;1.73;;;1.10;;
35578;SDS011;21687;48.900;9.188;2024-03-23T07:26:42;1.43;;;1.33;;
35578;SDS011;21687;48.900;9.188;2024-03-23T07:29:09;1.37;;;1.27;;
35578;SDS011;21687;48.900;9.188;2024-03-23T07:31:35;1.53;;;1.43;;
35578;SDS011;21687;48.900;9.188;2024-03-23T07:34:02;1.40;;;1.30;;
35578;SDS011;21687;48.900;9.188;2024-03-23T07:36:28;1.30;;;1.30;;
35578;SDS011;21687;48.900;9.188;2024-03-23T07:38:54;1.40;;;1.30;;
35578;SDS011;21687;48.900;9.188;2024-03-23T07:41:20;1.27;;;1.27;;
35578;SDS011;21687;48.900;9.188;2024-03-23T07:43:47;1.30;;;1.20;;
35578;SDS011;21687;48.900;9.188;2024-03-23T07:46:15;1.50;;;1.40;;
35578;SDS011;21687;48.900;9.188;2024-03-23T07:48:42;1.50;;;1.40;;
35578;SDS011;21687;48.900;9.188;2024-03-23T07:51:10;1.50;;;1.40;;
35578;SDS011;21687;48.900;9.188;2024-03-23T07:53:47;1.50;;;1.40;;
35578;SDS011;21687;48.900;9.188;2024-03-23T07:56:17;2.37;;;1.50;;
35578;SDS011;21687;48.900;9.188;2024-03-23T07:58:47;1.50;;;1.40;;
35578;SDS011;21687;48.900;9.188;2024-03-23T08:01:14;1.70;;;1.60;;
35578;SDS011;21687;48.900;9.188;2024-03-23T08:03:42;1.20;;;1.20;;
35578;SDS011;21687;48.900;9.188;2024-03-23T08:06:10;1.03;;;1.03;;
35578;SDS011;21687;48.900;9.188;2024-03-23T08:08:37;1.10;;;1.10;;
35578;SDS011;21687;48.900;9.188;2024-03-23T08:11:04;1.00;;;1.00;;
35578;SDS011;21687;48.900;9.188;2024-03-23T08:13:30;1.13;;;1.00;;
35578;SDS011;21687;48.900;9.188;2024-03-23T08:16:01;1.10;;;1.10;;
35578;SDS011;21687;48.900;9.188;2024-03-23T08:18:28;1.17;;;1.10;;
35578;SDS011;21687;48.900;9.188;2024-03-23T08:20:55;2.13;;;1.10;;
35578;SDS011;21687;48.900;9.188;2024-03-23T08:23:26;1.00;;;1.00;;
35578;SDS011;21687;48.900;9.188;2024-03-23T08:25:57;1.10;;;1.10;;
35578;SDS011;21687;48.900;9.188;2024-03-23T08:28:24;1.13;;;1.03;;
35578;SDS011;21687;48.900;9.188;2024-03-23T08:30:50;1.00;;;1.00;;
35578;SDS011;21687;48.900;9.188;2024-03-23T08:33:17;0.90;;;0.90;;
35578;SDS011;21687;48.900;9.188;2024-03-23T08:38:46;1.47;;;1.03;;
35578;SDS011;21687;48.900;9.188;2024-03-23T08:41:12;1.40;;;1.30;;
35578;SDS011;21687;48.900;9.188;2024-03-23T08:43:39;1.23;;;1.00;;
35578;SDS011;21687;48.900;9.188;2024-03-23T08:46:10;1.37;;;1.27;;
35578;SDS011;21687;48.900;9.188;2024-03-23T08:48:39;1.67;;;1.37;;
35578;SDS011;21687;48.900;9.188;2024-03-23T08:51:09;1.90;;;1.20;;
35578;SDS011;21687;48.900;9.188;2024-03-23T08:53:37;1.30;;;1.20;;
35578;SDS011;21687;48.900;9.188;2024-03-23T08:56:04;2.53;;;1.63;;
35578;SDS011;21687;48.900;9.188;2024-03-23T08:58:32;2.03;;;1.40;;
35578;SDS011;21687;48.900;9.188;2024-03-23T09:01:03;2.97;;;1.53;;
35578;SDS011;21687;48.900;9.188;2024-03-23T09:03:31;3.57;;;1.60;;
35578;SDS011;21687;48.900;9.188;2024-03-23T09:05:58;1.40;;;1.30;;
35578;SDS011;21687;48.900;9.188;2024-03-23T09:08:24;3.10;;;1.50;;
35578;SDS011;21687;48.900;9.188;2024-03-23T09:10:51;1.70;;;1.60;;
35578;SDS011;21687;48.900;9.188;2024-03-23T09:13:18;3.80;;;1.83;;
35578;SDS011;21687;48.900;9.188;2024-03-23T09:15:45;4.97;;;1.67;;
35578;SDS011;21687;48.900;9.188;2024-03-23T09:18:13;5.43;;;2.10;;
35578;SDS011;21687;48.900;9.188;2024-03-23T09:20:39;5.30;;;2.00;;
35578;SDS011;21687;48.900;9.188;2024-03-23T09:23:06;3.60;;;2.23;;
35578;SDS011;21687;48.900;9.188;2024-03-23T09:25:35;3.53;;;2.47;;
35578;SDS011;21687;48.900;9.188;2024-03-23T09:28:05;4.77;;;2.70;;
35578;SDS011;21687;48.900;9.188;2024-03-23T09:30:35;3.63;;;2.47;;
35578;SDS011;21687;48.900;9.188;2024-03-23T09:33:11;5.93;;;2.70;;
35578;SDS011;21687;48.900;9.188;2024-03-23T09:35:41;7.13;;;3.10;;
35578;SDS011;21687;48.900;9.188;2024-03-23T09:38:09;6.83;;;2.80;;
35578;SDS011;21687;48.900;9.188;2024-03-23T09:40:45;6.10;;;2.60;;
35578;SDS011;21687;48.900;9.188;2024-03-23T09:43:18;6.00;;;2.90;;
35578;SDS011;21687;48.900;9.188;2024-03-23T09:45:45;6.67;;;2.97;;
35578;SDS011;21687;48.900;9.188;2024-03-23T09:48:11;6.63;;;2.90;;
35578;SDS011;21687;48.900;9.188;2024-03-23T09:50:38;8.10;;;3.60;;
35578;SDS011;21687;48.900;9.188;2024-03-23T09:53:09;8.77;;;3.30;;
35578;SDS011;21687;48.900;9.188;2024-03-23T09:55:42;5.17;;;2.77;;
35578;SDS011;21687;48.900;9.188;2024-03-23T09:58:13;6.00;;;3.00;;
35578;SDS011;21687;48.900;9.188;2024-03-23T10:00:43;9.43;;;2.77;;
35578;SDS011;21687;48.900;9.188;2024-03-23T10:03:10;6.90;;;2.93;;
35578;SDS011;21687;48.900;9.188;2024-03-23T10:05:36;6.90;;;3.10;;
35578;SDS011;21687;48.900;9.188;2024-03-23T10:10:41;7.73;;;3.17;;
35578;SDS011;21687;48.900;9.188;2024-03-23T10:13:08;5.43;;;2.83;;
35578;SDS011;21687;48.900;9.188;2024-03-23T10:15:35;5.03;;;2.90;;
35578;SDS011;21687;48.900;9.188;2024-03-23T10:18:18;8.30;;;2.87;;
35578;SDS011;21687;48.900;9.188;2024-03-23T10:23:31;9.63;;;3.77;;
35578;SDS011;21687;48.900;9.188;2024-03-23T10:29:15;7.17;;;3.20;;
35578;SDS011;21687;48.900;9.188;2024-03-23T10:32:11;8.40;;;3.10;;
35578;SDS011;21687;48.900;9.188;2024-03-23T10:34:44;7.90;;;3.00;;
35578;SDS011;21687;48.900;9.188;2024-03-23T10:37:11;10.63;;;4.10;;
35578;SDS011;21687;48.900;9.188;2024-03-23T10:39:39;7.53;;;2.70;;
35578;SDS011;21687;48.900;9.188;2024-03-23T10:42:33;8.37;;;3.30;;
35578;SDS011;21687;48.900;9.188;2024-03-23T10:45:09;10.17;;;3.40;;
35578;SDS011;21687;48.900;9.188;2024-03-23T10:47:55;7.60;;;3.13;;
35578;SDS011;21687;48.900;9.188;2024-03-23T10:50:22;9.57;;;3.33;;
35578;SDS011;21687;48.900;9.188;2024-03-23T10:52:49;8.10;;;3.60;;
35578;SDS011;21687;48.900;9.188;2024-03-23T10:55:17;7.70;;;4.10;;
35578;SDS011;21687;48.900;9.188;2024-03-23T10:57:55;11.27;;;4.20;;
35578;SDS011;21687;48.900;9.188;2024-03-23T11:00:24;13.03;;;4.90;;
35578;SDS011;21687;48.900;9.188;2024-03-23T11:02:51;16.23;;;5.00;;
35578;SDS011;21687;48.900;9.188;2024-03-23T11:07:54;10.17;;;5.30;;
35578;SDS011;21687;48.900;9.188;2024-03-23T11:10:27;12.17;;;6.20;;
35578;SDS011;21687;48.900;9.188;2024-03-23T11:12:56;16.10;;;5.97;;
35578;SDS011;21687;48.900;9.188;2024-03-23T11:15:22;11.07;;;6.00;;
35578;SDS011;21687;48.900;9.188;2024-03-23T11:18:07;11.27;;;6.50;;
35578;SDS011;21687;48.900;9.188;2024-03-23T11:20:37;9.33;;;5.97;;
35578;SDS011;21687;48.900;9.188;2024-03-23T11:23:04;13.83;;;6.23;;
35578;SDS011;21687;48.900;9.188;2024-03-23T11:25:30;10.07;;;5.57;;
35578;SDS011;21687;48.900;9.188;2024-03-23T11:27:57;9.80;;;4.50;;
35578;SDS011;21687;48.900;9.188;2024-03-23T11:30:35;11.00;;;4.90;;
35578;SDS011;21687;48.900;9.188;2024-03-23T11:33:03;9.70;;;5.37;;
35578;SDS011;21687;48.900;9.188;2024-03-23T11:35:30;12.90;;;4.90;;
35578;SDS011;21687;48.900;9.188;2024-03-23T11:40:42;7.73;;;5.10;;
35578;SDS011;21687;48.900;9.188;2024-03-23T11:43:14;7.87;;;4.07;;
35578;SDS011;21687;48.900;9.188;2024-03-23T11:48:22;6.90;;;4.27;;
35578;SDS011;21687;48.900;9.188;2024-03-23T11:50:50;6.83;;;4.13;;
35578;SDS011;21687;48.900;9.188;2024-03-23T11:53:25;4.83;;;3.90;;
35578;SDS011;21687;48.900;9.188;2024-03-23T11:58:23;4.90;;;3.60;;
35578;SDS011;21687;48.900;9.188;2024-03-23T12:00:55;7.10;;;4.07;;
35578;SDS011;21687;48.900;9.188;2024-03-23T12:03:23;7.97;;;4.20;;
35578;SDS011;21687;48.900;9.188;2024-03-23T12:06:00;6.77;;;4.10;;
35578;SDS011;21687;48.900;9.188;2024-03-23T12:08:29;4.70;;;3.07;;
35578;SDS011;21687;48.900;9.188;2024-03-23T12:11:10;5.77;;;3.77;;
35578;SDS011;21687;48.900;9.188;2024-03-23T12:13:38;9.33;;;2.60;;
35578;SDS011;21687;48.900;9.188;2024-03-23T12:16:10;6.90;;;2.40;;
35578;SDS011;21687;48.900;9.188;2024-03-23T12:18:38;6.03;;;2.23;;
35578;SDS011;21687;48.900;9.188;2024-03-23T12:21:05;5.00;;;2.47;;
35578;SDS011;21687;48.900;9.188;2024-03-23T12:23:32;6.43;;;2.50;;
35578;SDS011;21687;48.900;9.188;2024-03-23T12:25:59;6.40;;;2.33;;
35578;SDS011;21687;48.900;9.188;2024-03-23T12:28:25;5.23;;;2.30;;
35578;SDS011;21687;48.900;9.188;2024-03-23T12:30:51;6.10;;;2.50;;
35578;SDS011;21687;48.900;9.188;2024-03-23T12:33:19;6.63;;;2.50;;
35578;SDS011;21687;48.900;9.188;2024-03-23T12:35:46;5.60;;;2.23;;
35578;SDS011;21687;48.900;9.188;2024-03-23T12:38:13;7.53;;;2.43;;
35578;SDS011;21687;48.900;9.188;2024-03-23T12:40:40;4.47;;;2.23;;
35578;SDS011;21687;48.900;9.188;2024-03-23T12:43:06;6.47;;;2.77;;
35578;SDS011;21687;48.900;9.188;2024-03-23T12:45:33;5.17;;;2.17;;
35578;SDS011;21687;48.900;9.188;2024-03-23T12:47:59;10.00;;;2.63;;
35578;SDS011;21687;48.900;9.188;2024-03-23T12:50:25;7.87;;;2.40;;
35578;SDS011;21687;48.900;9.188;2024-03-23T12:52:52;8.40;;;2.73;;
35578;SDS011;21687;48.900;9.188;2024-03-23T12:55:18;7.10;;;2.47;;
35578;SDS011;21687;48.900;9.188;2024-03-23T12:57:45;4.50;;;2.30;;
35578;SDS011;21687;48.900;9.188;2024-03-23T13:00:11;6.80;;;2.60;;
35578;SDS011;21687;48.900;9.188;2024-03-23T13:02:38;9.67;;;2.63;;
35578;SDS011;21687;48.900;9.188;2024-03-23T13:05:05;5.67;;;2.20;;
35578;SDS011;21687;48.900;9.188;2024-03-23T13:07:33;11.60;;;2.60;;
35578;SDS011;21687;48.900;9.188;2024-03-23T13:10:13;5.33;;;2.20;;
35578;SDS011;21687;48.900;9.188;2024-03-23T13:12:40;6.10;;;2.50;;
35578;SDS011;21687;48.900;9.188;2024-03-23T13:15:09;8.93;;;2.60;;
35578;SDS011;21687;48.900;9.188;2024-03-23T13:17:35;10.60;;;2.93;;
35578;SDS011;21687;48.900;9.188;2024-03-23T13:20:03;8.03;;;2.80;;
35578;SDS011;21687;48.900;9.188;2024-03-23T13:22:30;4.43;;;2.30;;
35578;SDS011;21687;48.900;9.188;2024-03-23T13:25:08;8.53;;;2.50;;
35578;SDS011;21687;48.900;9.188;2024-03-23T13:27:36;8.67;;;2.60;;
35578;SDS011;21687;48.900;9.188;2024-03-23T13:30:13;5.57;;;2.00;;
35578;SDS011;21687;48.900;9.188;2024-03-23T13:32:41;4.33;;;2.17;;
35578;SDS011;21687;48.900;9.188;2024-03-23T13:35:10;5.10;;;2.00;;
35578;SDS011;21687;48.900;9.188;2024-03-23T13:37:37;6.73;;;1.97;;
35578;SDS011;21687;48.900;9.188;2024-03-23T13:40:17;4.97;;;1.93;;
35578;SDS011;21687;48.900;9.188;2024-03-23T13:42:45;5.87;;;2.30;;
35578;SDS011;21687;48.900;9.188;2024-03-23T13:45:11;4.37;;;1.80;;
35578;SDS011;21687;48.900;9.188;2024-03-23T13:47:37;5.77;;;2.17;;
35578;SDS011;21687;48.900;9.188;2024-03-23T13:50:04;6.33;;;2.20;;
35578;SDS011;21687;48.900;9.188;2024-03-23T13:52:32;6.33;;;2.33;;
35578;SDS011;21687;48.900;9.188;2024-03-23T13:54:59;5.53;;;2.13;;
35578;SDS011;21687;48.900;9.188;2024-03-23T13:57:25;8.90;;;2.30;;
35578;SDS011;21687;48.900;9.188;2024-03-23T13:59:52;8.87;;;2.40;;
35578;SDS011;21687;48.900;9.188;2024-03-23T14:02:18;5.80;;;2.27;;
35578;SDS011;21687;48.900;9.188;2024-03-23T14:04:44;6.80;;;1.97;;
35578;SDS011;21687;48.900;9.188;2024-03-23T14:07:11;4.83;;;1.87;;
35578;SDS011;21687;48.900;9.188;2024-03-23T14:09:37;6.60;;;2.10;;
35578;SDS011;21687;48.900;9.188;2024-03-23T14:12:03;4.70;;;2.13;;
35578;SDS011;21687;48.900;9.188;2024-03-23T14:14:31;5.27;;;2.17;;
35578;SDS011;21687;48.900;9.188;2024-03-23T14:16:58;5.40;;;2.17;;
35578;SDS011;21687;48.900;9.188;2024-03-23T14:19:25;5.77;;;1.90;;
35578;SDS011;21687;48.900;9.188;2024-03-23T14:21:51;5.57;;;1.77;;
35578;SDS011;21687;48.900;9.188;2024-03-23T14:24:17;8.97;;;2.37;;
35578;SDS011;21687;48.900;9.188;2024-03-23T14:26:43;4.03;;;2.17;;
35578;SDS011;21687;48.900;9.188;2024-03-23T14:29:10;6.13;;;2.53;;
35578;SDS011;21687;48.900;9.188;2024-03-23T14:31:36;7.07;;;2.03;;
35578;SDS011;21687;48.900;9.188;2024-03-23T14:34:02;7.93;;;2.63;;
35578;SDS011;21687;48.900;9.188;2024-03-23T14:36:29;4.77;;;2.03;;
35578;SDS011;21687;48.900;9.188;2024-03-23T14:38:55;7.30;;;2.50;;
35578;SDS011;21687;48.900;9.188;2024-03-23T14:41:21;5.63;;;2.13;;
35578;SDS011;21687;48.900;9.188;2024-03-23T14:43:48;6.33;;;1.90;;
35578;SDS011;21687;48.900;9.188;2024-03-23T14:46:16;7.27;;;2.50;;
35578;SDS011;21687;48.900;9.188;2024-03-23T14:48:43;6.63;;;2.53;;
35578;SDS011;21687;48.900;9.188;2024-03-23T14:51:11;7.53;;;2.57;;
35578;SDS011;21687;48.900;9.188;2024-03-23T14:53:38;4.30;;;2.10;;
35578;SDS011;21687;48.900;9.188;2024-03-23T14:56:06;4.40;;;1.87;;
35578;SDS011;21687;48.900;9.188;2024-03-23T14:58:34;10.47;;;2.60;;
35578;SDS011;21687;48.900;9.188;2024-03-23T15:01:04;3.63;;;1.67;;
35578;SDS011;21687;48.900;9.188;2024-03-23T15:03:38;5.90;;;2.17;;
35578;SDS011;21687;48.900;9.188;2024-03-23T15:06:05;7.07;;;2.07;;
35578;SDS011;21687;48.900;9.188;2024-03-23T15:08:34;2.10;;;1.50;;
35578;SDS011;21687;48.900;9.188;2024-03-23T15:11:01;2.07;;;1.33;;
35578;SDS011;21687;48.900;9.188;2024-03-23T15:13:31;3.60;;;1.47;;
35578;SDS011;21687;48.900;9.188;2024-03-23T15:16:01;2.63;;;1.70;;
35578;SDS011;21687;48.900;9.188;2024-03-23T15:18:31;2.07;;;1.30;;
35578;SDS011;21687;48.900;9.188;2024-03-23T15:21:01;4.93;;;1.57;;
35578;SDS011;21687;48.900;9.188;2024-03-23T15:23:32;1.73;;;1.50;;
35578;SDS011;21687;48.900;9.188;2024-03-23T15:25:59;2.80;;;1.27;;
35578;SDS011;21687;48.900;9.188;2024-03-23T15:28:27;1.83;;;1.37;;
35578;SDS011;21687;48.900;9.188;2024-03-23T15:31:05;2.50;;;1.50;;
35578;SDS011;21687;48.900;9.188;2024-03-23T15:33:32;2.70;;;1.40;;
35578;SDS011;21687;48.900;9.188;2024-03-23T15:35:59;2.20;;;1.30;;
35578;SDS011;21687;48.900;9.188;2024-03-23T15:38:26;2.50;;;1.40;;
35578;SDS011;21687;48.900;9.188;2024-03-23T15:40:52;4.77;;;1.40;;
35578;SDS011;21687;48.900;9.188;2024-03-23T15:43:19;2.20;;;1.10;;
35578;SDS011;21687;48.900;9.188;2024-03-23T15:45:55;3.27;;;1.17;;
35578;SDS011;21687;48.900;9.188;2024-03-23T15:48:23;2.50;;;1.43;;
35578;SDS011;21687;48.900;9.188;2024-03-23T15:50:54;3.40;;;1.60;;
35578;SDS011;21687;48.900;9.188;2024-03-23T15:53:22;2.37;;;1.40;;
35578;SDS011;21687;48.900;9.188;2024-03-23T15:55:59;2.90;;;1.50;;
35578;SDS011;21687;48.900;9.188;2024-03-23T15:58:26;2.07;;;1.50;;
35578;SDS011;21687;48.900;9.188;2024-03-23T16:01:03;2.77;;;1.50;;
35578;SDS011;21687;48.900;9.188;2024-03-23T16:03:34;2.97;;;1.50;;